Time;durP1;ratioP1;P1;durP2;ratioP2;P2;SDS_P1;SDS_P2;PMS_P1;PMS_P2;Temp;Humidity;BMP_temperature;BMP_pressure;BME280_temperature;BME280_humidity;BME280_pressure;Samples;Min_cycle;Max_cycle;Signal;HPM_P1;HPM_P2
2023/11/30 00:01:57;;;;;;;15.07;8.47;;;;;;;;;;5002650;28;20041;-75
2023/11/30 00:04:23;;;;;;;13.50;6.87;;;;;;;;;;5010546;28;20030;-73
2023/11/30 00:06:48;;;;;;;17.63;8.33;;;;;;;;;;5008580;28;20041;-73
2023/11/30 00:09:16;;;;;;;15.57;8.50;;;;;;;;;;5009978;28;20056;-73
2023/11/30 00:11:41;;;;;;;15.10;7.43;;;;;;;;;;5008303;28;20488;-73
2023/11/30 00:14:07;;;;;;;16.87;8.20;;;;;;;;;;5008420;28;20026;-74
2023/11/30 00:16:32;;;;;;;17.40;7.90;;;;;;;;;;5008015;28;20042;-76
2023/11/30 00:18:58;;;;;;;13.00;7.43;;;;;;;;;;5008342;28;20025;-74
2023/11/30 00:21:23;;;;;;;14.83;8.43;;;;;;;;;;5009792;28;20033;-75
2023/11/30 00:23:49;;;;;;;16.07;8.23;;;;;;;;;;5007742;28;20093;-74
2023/11/30 00:26:17;;;;;;;16.57;8.30;;;;;;;;;;5009473;28;20041;-73
2023/11/30 00:28:42;;;;;;;13.00;7.40;;;;;;;;;;5009648;28;20472;-73
2023/11/30 00:31:08;;;;;;;15.93;8.30;;;;;;;;;;5009815;28;20117;-74
2023/11/30 00:33:34;;;;;;;14.23;7.20;;;;;;;;;;5007992;28;20025;-75
2023/11/30 00:35:59;;;;;;;16.87;7.67;;;;;;;;;;5009700;28;20029;-73
2023/11/30 00:38:25;;;;;;;11.63;7.53;;;;;;;;;;5007936;28;20041;-74
2023/11/30 00:40:50;;;;;;;18.43;8.10;;;;;;;;;;5009094;28;20104;-74
2023/11/30 00:43:16;;;;;;;14.30;7.10;;;;;;;;;;5007889;28;20037;-73
2023/11/30 00:45:42;;;;;;;18.73;8.40;;;;;;;;;;5023841;28;20041;-73
2023/11/30 00:48:08;;;;;;;17.40;8.03;;;;;;;;;;5007473;28;20018;-73
2023/11/30 00:50:33;;;;;;;17.47;9.63;;;;;;;;;;5008902;28;20032;-73
2023/11/30 00:52:59;;;;;;;16.13;7.83;;;;;;;;;;5008855;28;20040;-73
2023/11/30 00:55:24;;;;;;;16.13;7.87;;;;;;;;;;5009381;28;20026;-72
2023/11/30 00:57:50;;;;;;;18.40;8.30;;;;;;;;;;5009309;28;20036;-74
2023/11/30 01:00:15;;;;;;;15.80;7.83;;;;;;;;;;5009182;28;20089;-74
2023/11/30 01:02:41;;;;;;;18.10;8.33;;;;;;;;;;4988977;28;20041;-73
2023/11/30 01:05:07;;;;;;;16.17;8.10;;;;;;;;;;4987912;28;20034;-73
2023/11/30 01:07:34;;;;;;;13.73;8.00;;;;;;;;;;4989510;28;20041;-74
2023/11/30 01:09:59;;;;;;;17.57;8.73;;;;;;;;;;4989535;28;20042;-74
2023/11/30 01:12:26;;;;;;;16.73;8.40;;;;;;;;;;4988329;28;20104;-73
2023/11/30 01:14:52;;;;;;;14.43;8.43;;;;;;;;;;4987969;28;20030;-75
2023/11/30 01:17:18;;;;;;;16.03;7.17;;;;;;;;;;4988029;28;20204;-74
2023/11/30 01:19:44;;;;;;;14.07;8.30;;;;;;;;;;4987963;28;20121;-73
2023/11/30 01:22:09;;;;;;;18.67;8.07;;;;;;;;;;4988173;28;20172;-74
2023/11/30 01:24:35;;;;;;;18.97;8.40;;;;;;;;;;4989029;28;20026;-75
2023/11/30 01:27:00;;;;;;;12.87;7.60;;;;;;;;;;4987855;28;20062;-74
2023/11/30 01:29:26;;;;;;;16.80;8.00;;;;;;;;;;4987915;28;20455;-74
2023/11/30 01:31:51;;;;;;;20.00;8.97;;;;;;;;;;4988831;28;20045;-74
2023/11/30 01:34:17;;;;;;;18.90;8.90;;;;;;;;;;4990006;28;20026;-75
2023/11/30 01:36:43;;;;;;;17.17;8.20;;;;;;;;;;4991772;28;20034;-74
2023/11/30 01:39:09;;;;;;;15.30;7.93;;;;;;;;;;4992801;28;20064;-73
2023/11/30 01:41:36;;;;;;;13.77;7.30;;;;;;;;;;4990607;28;20439;-73
2023/11/30 01:44:02;;;;;;;15.37;8.07;;;;;;;;;;4995800;28;20023;-74
2023/11/30 01:46:28;;;;;;;11.67;7.10;;;;;;;;;;4996615;28;20129;-75
2023/11/30 01:48:55;;;;;;;14.40;6.87;;;;;;;;;;4994818;28;20117;-74
2023/11/30 01:51:21;;;;;;;15.80;7.57;;;;;;;;;;4990129;28;20030;-74
2023/11/30 01:53:46;;;;;;;62.40;17.20;;;;;;;;;;5003842;28;20097;-75
2023/11/30 01:56:13;;;;;;;17.53;9.73;;;;;;;;;;4989241;28;20045;-73
2023/11/30 01:58:39;;;;;;;14.60;9.23;;;;;;;;;;4988642;28;20034;-74
2023/11/30 02:01:07;;;;;;;17.53;9.50;;;;;;;;;;4993845;28;20025;-75
2023/11/30 02:03:34;;;;;;;15.67;8.63;;;;;;;;;;5008285;28;20022;-71
2023/11/30 02:06:00;;;;;;;21.53;9.53;;;;;;;;;;5008181;28;20117;-75
2023/11/30 02:08:25;;;;;;;17.80;8.87;;;;;;;;;;5006957;28;20180;-74
2023/11/30 02:10:52;;;;;;;17.83;8.87;;;;;;;;;;5006660;28;20084;-74
2023/11/30 02:13:18;;;;;;;15.50;7.97;;;;;;;;;;5010563;28;20034;-75
2023/11/30 02:15:43;;;;;;;17.47;8.30;;;;;;;;;;5010594;28;20063;-73
2023/11/30 02:18:09;;;;;;;14.43;7.10;;;;;;;;;;5012028;28;20103;-73
2023/11/30 02:20:34;;;;;;;44.43;11.17;;;;;;;;;;5010068;28;20033;-72
2023/11/30 02:23:00;;;;;;;18.40;7.50;;;;;;;;;;5010411;28;20030;-73
2023/11/30 02:25:25;;;;;;;13.03;7.17;;;;;;;;;;5011923;28;20109;-74
2023/11/30 02:27:51;;;;;;;14.37;8.07;;;;;;;;;;5011895;28;20390;-73
2023/11/30 02:30:16;;;;;;;20.27;10.17;;;;;;;;;;5011938;28;20034;-74
2023/11/30 02:32:42;;;;;;;14.77;7.20;;;;;;;;;;5010238;28;20207;-74
2023/11/30 02:35:08;;;;;;;13.40;6.87;;;;;;;;;;5012062;28;20025;-74
2023/11/30 02:37:33;;;;;;;13.73;7.57;;;;;;;;;;5010339;28;20101;-74
2023/11/30 02:39:59;;;;;;;14.07;7.30;;;;;;;;;;5009769;28;20386;-74
2023/11/30 02:42:24;;;;;;;12.63;6.70;;;;;;;;;;5010068;28;20025;-74
2023/11/30 02:44:50;;;;;;;13.67;7.87;;;;;;;;;;5009811;28;20034;-73
2023/11/30 02:47:15;;;;;;;11.03;6.77;;;;;;;;;;5011612;28;20511;-74
2023/11/30 02:49:41;;;;;;;15.43;7.93;;;;;;;;;;5009693;28;20427;-74
2023/11/30 02:52:06;;;;;;;13.73;7.30;;;;;;;;;;5011300;28;20450;-73
2023/11/30 02:54:32;;;;;;;12.33;6.77;;;;;;;;;;5011379;28;20044;-73
2023/11/30 02:56:57;;;;;;;14.47;6.73;;;;;;;;;;5011825;28;20049;-74
2023/11/30 02:59:23;;;;;;;13.83;6.73;;;;;;;;;;5010064;28;20069;-72
2023/11/30 03:01:49;;;;;;;16.40;8.43;;;;;;;;;;4999324;28;20030;-75
2023/11/30 03:04:15;;;;;;;14.40;7.77;;;;;;;;;;4991701;28;20112;-73
2023/11/30 03:06:41;;;;;;;16.33;8.60;;;;;;;;;;4991529;28;20038;-74
2023/11/30 03:09:08;;;;;;;13.60;7.47;;;;;;;;;;4990078;28;20198;-73
2023/11/30 03:11:34;;;;;;;16.23;7.83;;;;;;;;;;4991344;28;20030;-73
2023/11/30 03:13:59;;;;;;;13.30;7.60;;;;;;;;;;4991311;28;20648;-73
2023/11/30 03:16:26;;;;;;;16.50;7.97;;;;;;;;;;4991603;28;20070;-74
2023/11/30 03:18:52;;;;;;;14.13;7.53;;;;;;;;;;4991241;28;20034;-75
2023/11/30 03:21:18;;;;;;;19.20;8.07;;;;;;;;;;4989784;28;20436;-76
2023/11/30 03:23:43;;;;;;;14.13;7.10;;;;;;;;;;4990583;28;20124;-74
2023/11/30 03:26:09;;;;;;;15.13;7.10;;;;;;;;;;4989221;28;20125;-74
2023/11/30 03:28:35;;;;;;;13.57;6.87;;;;;;;;;;4989730;28;20030;-72
2023/11/30 03:31:00;;;;;;;13.97;7.30;;;;;;;;;;4990770;28;20466;-74
2023/11/30 03:33:26;;;;;;;12.50;7.03;;;;;;;;;;4990966;28;20398;-73
2023/11/30 03:35:51;;;;;;;15.33;7.93;;;;;;;;;;4990611;28;20030;-74
2023/11/30 03:38:17;;;;;;;13.80;6.57;;;;;;;;;;4989464;28;20030;-74
2023/11/30 03:40:43;;;;;;;13.40;6.67;;;;;;;;;;4989352;28;20503;-74
2023/11/30 03:43:09;;;;;;;14.83;7.63;;;;;;;;;;4989373;28;20038;-75
2023/11/30 03:45:34;;;;;;;16.13;8.10;;;;;;;;;;4989188;28;20134;-74
2023/11/30 03:48:00;;;;;;;13.53;6.77;;;;;;;;;;4989029;28;20049;-75
2023/11/30 03:50:26;;;;;;;14.97;8.07;;;;;;;;;;4989012;28;20540;-75
2023/11/30 03:52:51;;;;;;;14.73;8.53;;;;;;;;;;4988671;28;20053;-75
2023/11/30 03:55:18;;;;;;;18.50;8.10;;;;;;;;;;4989024;28;20037;-72
2023/11/30 03:57:43;;;;;;;13.20;7.03;;;;;;;;;;4988913;28;20137;-75
2023/11/30 04:00:12;;;;;;;12.20;7.33;;;;;;;;;;4989229;28;20073;-74
2023/11/30 04:02:38;;;;;;;12.30;6.87;;;;;;;;;;5006584;28;20129;-76
2023/11/30 04:05:05;;;;;;;15.00;8.00;;;;;;;;;;5010051;28;20449;-74
2023/11/30 04:07:31;;;;;;;12.97;7.13;;;;;;;;;;5008548;28;20092;-74
2023/11/30 04:09:57;;;;;;;15.37;7.73;;;;;;;;;;5009571;28;20037;-74
2023/11/30 04:12:24;;;;;;;18.27;8.83;;;;;;;;;;5008807;28;20496;-74
2023/11/30 04:14:50;;;;;;;14.67;7.73;;;;;;;;;;5009744;28;20248;-72
2023/11/30 04:17:15;;;;;;;15.70;7.10;;;;;;;;;;5009785;28;20548;-73
2023/11/30 04:19:41;;;;;;;14.40;7.83;;;;;;;;;;5008176;28;20044;-73
2023/11/30 04:22:08;;;;;;;12.67;7.03;;;;;;;;;;5008447;28;20581;-73
2023/11/30 04:24:34;;;;;;;17.67;7.90;;;;;;;;;;5008318;28;20034;-72
2023/11/30 04:27:01;;;;;;;15.50;7.60;;;;;;;;;;5007999;28;20441;-74
2023/11/30 04:29:26;;;;;;;16.90;7.43;;;;;;;;;;5008232;28;20026;-75
2023/11/30 04:31:52;;;;;;;14.63;8.17;;;;;;;;;;5009245;28;20124;-74
2023/11/30 04:34:18;;;;;;;14.67;8.30;;;;;;;;;;5009516;28;20037;-74
2023/11/30 04:36:44;;;;;;;19.53;8.40;;;;;;;;;;5008360;28;20050;-75
2023/11/30 04:39:11;;;;;;;15.90;7.53;;;;;;;;;;5009550;28;20462;-74
2023/11/30 04:41:39;;;;;;;13.87;7.60;;;;;;;;;;5008112;28;20025;-75
2023/11/30 04:44:05;;;;;;;13.57;7.70;;;;;;;;;;5009270;28;20088;-75
2023/11/30 04:46:31;;;;;;;16.87;7.80;;;;;;;;;;5009324;28;20029;-73
2023/11/30 04:49:00;;;;;;;14.07;8.27;;;;;;;;;;5008011;28;20061;-75
2023/11/30 04:51:26;;;;;;;12.93;7.80;;;;;;;;;;5007717;28;20084;-74
2023/11/30 04:53:52;;;;;;;20.40;8.40;;;;;;;;;;5009244;28;20432;-75
2023/11/30 04:56:17;;;;;;;20.67;8.70;;;;;;;;;;5007773;28;20037;-76
2023/11/30 04:58:43;;;;;;;16.40;8.23;;;;;;;;;;5009239;28;20057;-75
2023/11/30 05:01:08;;;;;;;16.70;8.00;;;;;;;;;;5007453;28;20033;-74
2023/11/30 05:03:35;;;;;;;17.57;7.53;;;;;;;;;;5007466;28;20386;-75
2023/11/30 05:06:00;;;;;;;18.03;8.13;;;;;;;;;;5008795;28;20036;-75
2023/11/30 05:08:26;;;;;;;27.83;12.20;;;;;;;;;;5007575;28;20038;-74
2023/11/30 05:10:52;;;;;;;16.97;8.47;;;;;;;;;;5007556;28;20052;-75
2023/11/30 05:13:17;;;;;;;17.13;9.67;;;;;;;;;;5007410;28;20037;-75
2023/11/30 05:15:43;;;;;;;14.57;7.80;;;;;;;;;;5008647;28;20426;-75
2023/11/30 05:18:08;;;;;;;15.73;8.47;;;;;;;;;;5008743;28;20030;-74
2023/11/30 05:20:34;;;;;;;17.83;9.00;;;;;;;;;;5009070;28;20419;-74
2023/11/30 05:23:01;;;;;;;18.00;8.77;;;;;;;;;;5009324;28;20034;-74
2023/11/30 05:25:29;;;;;;;15.83;8.33;;;;;;;;;;5008906;28;20026;-75
2023/11/30 05:27:57;;;;;;;18.50;8.57;;;;;;;;;;5008830;28;20037;-74
2023/11/30 05:30:22;;;;;;;16.63;8.47;;;;;;;;;;5008834;28;20029;-75
2023/11/30 05:32:48;;;;;;;18.17;8.63;;;;;;;;;;5008662;28;20029;-74
2023/11/30 05:35:13;;;;;;;14.10;7.67;;;;;;;;;;4974848;28;20040;-74
2023/11/30 05:37:40;;;;;;;19.03;10.27;;;;;;;;;;5009371;28;20040;-74
2023/11/30 05:40:07;;;;;;;17.00;9.43;;;;;;;;;;5007421;28;20537;-74
2023/11/30 05:42:33;;;;;;;19.80;9.50;;;;;;;;;;5007725;28;20103;-74
2023/11/30 05:44:58;;;;;;;15.33;8.73;;;;;;;;;;5018175;28;20022;-73
2023/11/30 05:47:27;;;;;;;20.70;10.23;;;;;;;;;;5024053;28;20025;-73
2023/11/30 05:49:54;;;;;;;22.70;11.40;;;;;;;;;;5027225;28;20510;-73
2023/11/30 05:52:20;;;;;;;15.40;8.27;;;;;;;;;;5026313;28;20025;-74
2023/11/30 05:54:45;;;;;;;19.17;8.83;;;;;;;;;;5017844;28;20026;-74
2023/11/30 05:57:11;;;;;;;16.90;8.57;;;;;;;;;;5012506;28;20038;-74
2023/11/30 05:59:37;;;;;;;16.07;7.70;;;;;;;;;;5011409;28;20113;-73
2023/11/30 06:02:04;;;;;;;18.73;8.30;;;;;;;;;;4998828;28;20037;-74
2023/11/30 06:04:31;;;;;;;14.40;8.10;;;;;;;;;;4993161;28;20061;-75
2023/11/30 06:06:57;;;;;;;18.23;9.43;;;;;;;;;;4991068;28;20037;-75
2023/11/30 06:09:23;;;;;;;20.43;9.17;;;;;;;;;;4992850;28;20212;-74
2023/11/30 06:11:51;;;;;;;19.00;8.93;;;;;;;;;;4991008;28;20030;-73
2023/11/30 06:14:17;;;;;;;17.00;8.83;;;;;;;;;;4992764;28;20098;-73
2023/11/30 06:16:43;;;;;;;18.30;9.70;;;;;;;;;;4990953;28;20109;-73
2023/11/30 06:19:09;;;;;;;18.90;8.37;;;;;;;;;;4991167;28;20515;-73
2023/11/30 06:21:39;;;;;;;18.77;8.17;;;;;;;;;;4992482;28;20026;-73
2023/11/30 06:24:04;;;;;;;17.60;8.73;;;;;;;;;;4990932;28;20408;-72
2023/11/30 06:26:30;;;;;;;21.37;9.43;;;;;;;;;;4991704;28;20144;-73
2023/11/30 06:28:55;;;;;;;15.83;9.70;;;;;;;;;;4990709;28;20049;-74
2023/11/30 06:31:21;;;;;;;15.63;8.70;;;;;;;;;;4992612;28;20041;-72
2023/11/30 06:33:47;;;;;;;16.20;7.83;;;;;;;;;;4992046;28;20046;-73
2023/11/30 06:36:13;;;;;;;17.60;9.10;;;;;;;;;;4990770;28;20040;-73
2023/11/30 06:38:38;;;;;;;17.73;9.13;;;;;;;;;;5007312;28;20462;-74
2023/11/30 06:41:12;;;;;;;15.13;8.20;;;;;;;;;;4991858;28;20498;-73
2023/11/30 06:43:39;;;;;;;18.17;9.30;;;;;;;;;;4990202;28;20044;-72
2023/11/30 06:46:04;;;;;;;17.07;8.30;;;;;;;;;;5005989;28;20092;-72
2023/11/30 06:48:31;;;;;;;16.63;9.97;;;;;;;;;;4991704;28;20034;-73
2023/11/30 06:50:56;;;;;;;19.80;9.63;;;;;;;;;;4989879;28;20416;-72
2023/11/30 06:53:21;;;;;;;18.47;9.37;;;;;;;;;;4991671;28;20115;-72
2023/11/30 06:55:47;;;;;;;18.90;9.77;;;;;;;;;;4991786;28;20101;-72
2023/11/30 06:58:14;;;;;;;18.10;9.70;;;;;;;;;;4990063;28;20034;-74
2023/11/30 07:00:40;;;;;;;23.67;10.90;;;;;;;;;;4989851;28;20117;-73
2023/11/30 07:03:05;;;;;;;20.43;9.47;;;;;;;;;;5008677;28;20298;-73
2023/11/30 07:05:31;;;;;;;16.87;9.47;;;;;;;;;;5012997;28;20088;-73
2023/11/30 07:07:57;;;;;;;17.50;9.33;;;;;;;;;;5013969;28;20116;-72
2023/11/30 07:10:22;;;;;;;17.93;9.43;;;;;;;;;;5016685;28;20034;-71
2023/11/30 07:12:48;;;;;;;20.83;8.97;;;;;;;;;;5017103;28;20379;-72
2023/11/30 07:15:14;;;;;;;18.93;10.50;;;;;;;;;;4993282;28;20033;-72
2023/11/30 07:17:40;;;;;;;18.40;9.97;;;;;;;;;;5014849;28;20131;-74
2023/11/30 07:20:07;;;;;;;20.10;9.47;;;;;;;;;;5010714;28;20045;-72
2023/11/30 07:22:34;;;;;;;18.30;9.37;;;;;;;;;;5005076;28;20537;-73
2023/11/30 07:25:01;;;;;;;15.20;8.50;;;;;;;;;;5006744;28;20030;-72
2023/11/30 07:27:27;;;;;;;15.53;8.40;;;;;;;;;;5011285;28;20060;-72
2023/11/30 07:29:54;;;;;;;21.97;10.40;;;;;;;;;;5004150;28;20364;-75
2023/11/30 07:32:24;;;;;;;23.23;10.40;;;;;;;;;;5015897;28;20042;-74
2023/11/30 07:34:54;;;;;;;20.30;9.30;;;;;;;;;;5008659;28;20041;-73
2023/11/30 07:37:21;;;;;;;20.27;9.87;;;;;;;;;;5010050;28;20081;-74
2023/11/30 07:39:50;;;;;;;20.40;11.53;;;;;;;;;;5027756;28;20037;-73
2023/11/30 07:42:17;;;;;;;20.07;10.47;;;;;;;;;;5014070;28;20042;-73
2023/11/30 07:44:43;;;;;;;24.40;15.03;;;;;;;;;;5010024;28;20029;-71
2023/11/30 07:47:08;;;;;;;18.43;10.50;;;;;;;;;;5015223;28;20133;-74
2023/11/30 07:49:34;;;;;;;17.87;8.90;;;;;;;;;;5005434;28;20051;-73
2023/11/30 07:52:00;;;;;;;22.00;10.47;;;;;;;;;;5029418;28;20063;-72
2023/11/30 07:54:26;;;;;;;20.57;10.47;;;;;;;;;;5015549;28;20140;-73
2023/11/30 07:56:52;;;;;;;19.17;10.13;;;;;;;;;;5024784;28;20040;-72
2023/11/30 07:59:18;;;;;;;21.90;10.23;;;;;;;;;;5009614;28;20029;-73
2023/11/30 08:01:44;;;;;;;19.00;10.13;;;;;;;;;;5026690;28;20041;-74
2023/11/30 08:04:09;;;;;;;15.67;8.47;;;;;;;;;;5029459;28;20044;-73
2023/11/30 08:06:35;;;;;;;19.27;9.87;;;;;;;;;;5012454;28;20037;-72
2023/11/30 08:09:03;;;;;;;19.60;9.30;;;;;;;;;;5007992;28;20038;-73
2023/11/30 08:11:28;;;;;;;19.60;9.83;;;;;;;;;;5011675;28;20357;-71
2023/11/30 08:13:54;;;;;;;19.37;9.73;;;;;;;;;;5016717;28;20044;-72
2023/11/30 08:16:21;;;;;;;18.57;9.13;;;;;;;;;;5014297;28;20152;-74
2023/11/30 08:18:48;;;;;;;22.57;11.13;;;;;;;;;;5006125;28;20057;-74
2023/11/30 08:21:14;;;;;;;17.03;9.77;;;;;;;;;;5026458;28;20496;-73
2023/11/30 08:23:42;;;;;;;18.47;9.53;;;;;;;;;;4999671;28;20494;-71
2023/11/30 08:26:08;;;;;;;16.37;9.10;;;;;;;;;;5010063;28;20116;-73
2023/11/30 08:28:36;;;;;;;23.20;10.53;;;;;;;;;;5002954;28;20450;-71
2023/11/30 08:31:05;;;;;;;22.73;11.87;;;;;;;;;;5013248;28;20036;-74
2023/11/30 08:33:32;;;;;;;17.50;9.77;;;;;;;;;;5005373;28;20596;-72
2023/11/30 08:35:57;;;;;;;21.07;9.80;;;;;;;;;;5014397;28;20045;-72
2023/11/30 08:38:24;;;;;;;18.83;10.10;;;;;;;;;;4996048;28;20038;-72
2023/11/30 08:40:50;;;;;;;45.27;18.50;;;;;;;;;;5008072;28;20476;-72
2023/11/30 08:43:16;;;;;;;24.40;11.93;;;;;;;;;;5018688;28;20056;-71
2023/11/30 08:45:44;;;;;;;23.27;11.47;;;;;;;;;;5028071;28;20106;-72
2023/11/30 08:48:10;;;;;;;23.87;11.93;;;;;;;;;;5028281;28;20360;-74
2023/11/30 08:50:36;;;;;;;19.97;10.57;;;;;;;;;;5020870;28;20080;-73
2023/11/30 08:53:03;;;;;;;24.33;10.43;;;;;;;;;;5009305;28;20096;-73
2023/11/30 08:55:32;;;;;;;21.67;9.73;;;;;;;;;;5017745;28;20040;-72
2023/11/30 08:57:58;;;;;;;18.50;10.00;;;;;;;;;;5001352;28;20041;-70
2023/11/30 09:00:26;;;;;;;18.50;10.77;;;;;;;;;;5020281;28;20034;-77
2023/11/30 09:02:52;;;;;;;19.77;10.80;;;;;;;;;;5010580;28;20084;-71
2023/11/30 09:05:19;;;;;;;21.97;10.80;;;;;;;;;;5008413;28;20562;-74
2023/11/30 09:07:51;;;;;;;18.43;9.87;;;;;;;;;;5009621;28;20041;-74
2023/11/30 09:10:21;;;;;;;20.38;10.23;;;;;;;;;;5023396;28;20594;-73
2023/11/30 09:12:50;;;;;;;20.37;10.73;;;;;;;;;;5005777;28;20482;-73
2023/11/30 09:15:16;;;;;;;16.80;9.53;;;;;;;;;;5008916;28;20033;-72
2023/11/30 09:17:42;;;;;;;16.43;9.90;;;;;;;;;;5009090;28;20101;-72
2023/11/30 09:20:10;;;;;;;14.93;8.97;;;;;;;;;;5006896;28;20034;-74
2023/11/30 09:22:37;;;;;;;13.73;8.60;;;;;;;;;;5014691;28;20029;-75
2023/11/30 09:25:05;;;;;;;16.20;8.80;;;;;;;;;;5013274;28;20053;-69
2023/11/30 09:27:32;;;;;;;18.77;9.13;;;;;;;;;;5013709;28;20037;-70
2023/11/30 09:29:57;;;;;;;15.53;9.27;;;;;;;;;;5028711;28;20473;-76
2023/11/30 09:32:23;;;;;;;19.40;10.63;;;;;;;;;;5016150;28;20253;-76
2023/11/30 09:34:51;;;;;;;17.43;9.73;;;;;;;;;;5017900;28;20019;-72
2023/11/30 09:37:18;;;;;;;20.60;9.93;;;;;;;;;;5023097;28;20041;-75
2023/11/30 09:39:46;;;;;;;19.77;10.07;;;;;;;;;;5011163;28;20038;-74
2023/11/30 09:42:16;;;;;;;19.60;10.23;;;;;;;;;;5017066;28;20042;-73
2023/11/30 09:44:43;;;;;;;20.47;9.83;;;;;;;;;;5011703;28;20347;-75
2023/11/30 09:47:12;;;;;;;21.13;10.30;;;;;;;;;;5023138;28;20021;-74
2023/11/30 09:49:38;;;;;;;21.10;9.70;;;;;;;;;;5015859;28;20111;-74
2023/11/30 09:52:04;;;;;;;21.13;10.33;;;;;;;;;;5021302;28;20030;-74
2023/11/30 09:54:32;;;;;;;18.90;8.80;;;;;;;;;;5022032;28;20110;-71
2023/11/30 09:56:59;;;;;;;16.70;9.70;;;;;;;;;;5019213;28;20037;-75
2023/11/30 09:59:27;;;;;;;19.37;9.77;;;;;;;;;;5008587;28;20053;-71
2023/11/30 10:01:58;;;;;;;19.60;8.87;;;;;;;;;;5035168;28;20045;-74
2023/11/30 10:04:29;;;;;;;16.40;8.33;;;;;;;;;;5016545;28;20041;-71
2023/11/30 10:06:59;;;;;;;24.87;9.73;;;;;;;;;;5021691;28;20326;-74
2023/11/30 10:09:30;;;;;;;18.53;9.60;;;;;;;;;;5011391;28;20039;-75
2023/11/30 10:11:57;;;;;;;18.93;8.43;;;;;;;;;;5022480;28;20132;-74
2023/11/30 10:14:26;;;;;;;16.73;8.77;;;;;;;;;;5009829;28;20030;-74
2023/11/30 10:16:53;;;;;;;15.23;8.57;;;;;;;;;;4997002;28;21076;-71
2023/11/30 10:19:19;;;;;;;23.03;9.10;;;;;;;;;;5027341;28;20049;-74
2023/11/30 10:21:45;;;;;;;19.17;9.43;;;;;;;;;;5009197;28;20461;-71
2023/11/30 10:24:12;;;;;;;50.13;10.70;;;;;;;;;;5019123;28;20062;-71
2023/11/30 10:26:42;;;;;;;18.80;8.97;;;;;;;;;;5010273;28;20029;-71
2023/11/30 10:29:11;;;;;;;13.77;7.87;;;;;;;;;;5011646;28;20125;-74
2023/11/30 10:31:40;;;;;;;15.30;8.50;;;;;;;;;;5010361;28;20050;-70
2023/11/30 10:34:10;;;;;;;29.33;9.37;;;;;;;;;;5034130;28;20302;-69
2023/11/30 10:36:39;;;;;;;16.97;8.80;;;;;;;;;;5017163;28;20064;-71
2023/11/30 10:39:25;;;;;;;15.47;8.80;;;;;;;;;;5018663;28;20030;-71
2023/11/30 10:41:55;;;;;;;15.53;8.30;;;;;;;;;;5019163;28;20041;-70
2023/11/30 10:44:31;;;;;;;15.40;8.37;;;;;;;;;;5019611;28;20041;-72
2023/11/30 10:47:17;;;;;;;21.67;10.57;;;;;;;;;;5007047;28;20420;-74
2023/11/30 10:49:43;;;;;;;21.03;9.37;;;;;;;;;;5013263;28;20358;-73
2023/11/30 10:52:10;;;;;;;22.43;9.20;;;;;;;;;;5020065;28;20521;-75
2023/11/30 10:54:58;;;;;;;20.97;10.00;;;;;;;;;;5015945;28;20127;-74
2023/11/30 10:57:26;;;;;;;17.33;9.43;;;;;;;;;;5011181;28;20038;-73
2023/11/30 10:59:58;;;;;;;14.63;7.27;;;;;;;;;;5007994;28;20106;-71
2023/11/30 11:02:46;;;;;;;15.73;9.20;;;;;;;;;;5013646;28;20063;-73
2023/11/30 11:05:13;;;;;;;16.63;8.27;;;;;;;;;;5015489;28;20030;-73
2023/11/30 11:07:47;;;;;;;21.70;9.97;;;;;;;;;;5000679;28;20034;-73
2023/11/30 11:10:51;;;;;;;23.50;9.07;;;;;;;;;;5007404;28;20087;-72
2023/11/30 11:13:26;;;;;;;20.80;9.10;;;;;;;;;;4999762;28;20033;-75
2023/11/30 11:15:59;;;;;;;26.80;9.83;;;;;;;;;;4988855;28;20054;-70
2023/11/30 11:19:02;;;;;;;17.87;9.07;;;;;;;;;;5002731;28;20054;-74
2023/11/30 11:21:34;;;;;;;18.13;9.73;;;;;;;;;;5009423;28;20058;-75
2023/11/30 11:24:07;;;;;;;16.83;9.25;;;;;;;;;;5014485;28;20036;-73
2023/11/30 11:26:48;;;;;;;30.50;10.40;;;;;;;;;;5007837;28;20038;-73
2023/11/30 11:29:15;;;;;;;26.40;9.70;;;;;;;;;;5014981;28;20085;-74
2023/11/30 11:31:42;;;;;;;17.40;9.20;;;;;;;;;;5003060;28;20168;-74
2023/11/30 11:34:09;;;;;;;16.37;9.03;;;;;;;;;;5005511;28;20029;-74
2023/11/30 11:36:39;;;;;;;17.13;9.03;;;;;;;;;;5008235;28;20030;-72
2023/11/30 11:39:06;;;;;;;22.43;9.27;;;;;;;;;;5018715;28;20499;-73
2023/11/30 11:41:39;;;;;;;20.03;9.40;;;;;;;;;;5031676;28;20373;-73
2023/11/30 11:44:07;;;;;;;20.50;8.80;;;;;;;;;;5005967;28;20030;-74
2023/11/30 11:46:33;;;;;;;35.40;11.40;;;;;;;;;;5007389;28;21160;-74
2023/11/30 11:48:59;;;;;;;20.07;10.67;;;;;;;;;;5006856;28;20041;-75
2023/11/30 11:51:24;;;;;;;22.57;10.17;;;;;;;;;;5011260;28;20429;-73
2023/11/30 11:53:53;;;;;;;22.97;11.17;;;;;;;;;;5014472;28;20061;-74
2023/11/30 11:56:19;;;;;;;24.07;9.93;;;;;;;;;;5034882;28;20033;-73
2023/11/30 11:58:46;;;;;;;18.17;8.70;;;;;;;;;;5011087;28;20046;-73
2023/11/30 12:01:12;;;;;;;35.03;11.73;;;;;;;;;;5003024;28;20117;-74
2023/11/30 12:03:47;;;;;;;18.60;9.50;;;;;;;;;;5014738;28;20143;-74
2023/11/30 12:06:13;;;;;;;21.70;8.83;;;;;;;;;;5007287;28;20040;-76
2023/11/30 12:08:41;;;;;;;24.13;10.33;;;;;;;;;;5007294;28;20588;-77
2023/11/30 12:11:07;;;;;;;31.70;9.63;;;;;;;;;;5005460;28;20083;-71
2023/11/30 12:13:37;;;;;;;17.93;9.33;;;;;;;;;;5025041;28;20037;-72
2023/11/30 12:16:06;;;;;;;23.57;9.97;;;;;;;;;;5004119;28;20456;-72
2023/11/30 12:18:31;;;;;;;22.23;10.50;;;;;;;;;;5016273;28;20510;-72
2023/11/30 12:20:59;;;;;;;30.43;10.10;;;;;;;;;;5024486;28;20039;-74
2023/11/30 12:23:24;;;;;;;31.03;11.03;;;;;;;;;;5005660;28;20049;-75
2023/11/30 12:25:52;;;;;;;32.50;11.77;;;;;;;;;;5015687;28;20030;-73
2023/11/30 12:28:18;;;;;;;22.17;10.23;;;;;;;;;;5002248;28;20037;-72
2023/11/30 12:30:45;;;;;;;43.03;12.10;;;;;;;;;;5005303;28;20555;-74
2023/11/30 12:33:11;;;;;;;18.93;8.80;;;;;;;;;;5005144;28;20120;-75
2023/11/30 12:35:36;;;;;;;26.53;9.23;;;;;;;;;;5018897;28;20079;-77
2023/11/30 12:38:02;;;;;;;24.20;9.37;;;;;;;;;;5020868;28;20072;-72
2023/11/30 12:40:29;;;;;;;23.33;9.33;;;;;;;;;;5018337;28;20033;-76
2023/11/30 12:42:57;;;;;;;20.20;9.77;;;;;;;;;;5027075;28;20064;-72
2023/11/30 12:45:27;;;;;;;25.70;9.00;;;;;;;;;;5016022;28;20062;-76
2023/11/30 12:47:56;;;;;;;20.38;8.88;;;;;;;;;;5017895;28;20116;-71
2023/11/30 12:50:23;;;;;;;14.07;9.33;;;;;;;;;;5013153;28;20782;-77
2023/11/30 12:52:49;;;;;;;26.60;12.47;;;;;;;;;;5002332;28;20450;-73
2023/11/30 12:55:15;;;;;;;25.47;9.20;;;;;;;;;;5008172;28;20026;-72
2023/11/30 12:57:40;;;;;;;16.70;8.73;;;;;;;;;;5023112;28;20022;-74
2023/11/30 13:00:13;;;;;;;19.27;9.03;;;;;;;;;;5007564;28;20060;-73
2023/11/30 13:02:46;;;;;;;17.83;10.13;;;;;;;;;;5014179;28;20125;-71
2023/11/30 13:05:13;;;;;;;25.00;10.25;;;;;;;;;;5012649;28;20036;-72
2023/11/30 13:07:41;;;;;;;34.57;21.07;;;;;;;;;;5015677;28;20044;-75
2023/11/30 13:10:09;;;;;;;22.47;10.73;;;;;;;;;;5014260;28;20030;-72
2023/11/30 13:12:36;;;;;;;23.40;11.07;;;;;;;;;;5019346;28;20520;-75
2023/11/30 13:15:10;;;;;;;22.53;10.43;;;;;;;;;;5017137;28;20056;-75
2023/11/30 13:17:49;;;;;;;21.50;9.60;;;;;;;;;;5027842;28;20111;-72
2023/11/30 13:20:15;;;;;;;17.73;9.80;;;;;;;;;;5012838;28;20038;-71
2023/11/30 13:22:46;;;;;;;31.17;11.77;;;;;;;;;;5024622;28;20030;-72
2023/11/30 13:25:16;;;;;;;16.80;9.52;;;;;;;;;;5021086;28;20496;-74
2023/11/30 13:27:50;;;;;;;26.60;9.67;;;;;;;;;;5014130;28;20030;-71
2023/11/30 13:30:16;;;;;;;23.53;11.00;;;;;;;;;;5000333;28;20036;-68
2023/11/30 13:32:46;;;;;;;22.47;10.73;;;;;;;;;;5012191;28;20041;-73
2023/11/30 13:35:12;;;;;;;29.07;11.77;;;;;;;;;;5000474;28;20168;-70
2023/11/30 13:37:38;;;;;;;22.37;11.17;;;;;;;;;;5006154;28;20126;-74
2023/11/30 13:40:07;;;;;;;24.97;11.70;;;;;;;;;;4997336;28;20427;-71
2023/11/30 13:42:34;;;;;;;22.97;12.30;;;;;;;;;;4990594;28;20036;-74
2023/11/30 13:45:01;;;;;;;25.50;12.57;;;;;;;;;;4991411;28;20057;-71
2023/11/30 13:47:27;;;;;;;24.70;11.47;;;;;;;;;;5000591;28;20504;-70
2023/11/30 13:49:55;;;;;;;32.37;11.97;;;;;;;;;;4997948;28;20041;-72
2023/11/30 13:52:24;;;;;;;29.47;11.90;;;;;;;;;;5006271;28;20046;-72
2023/11/30 13:54:50;;;;;;;41.73;12.93;;;;;;;;;;5015476;28;20104;-69
2023/11/30 13:57:16;;;;;;;22.70;11.83;;;;;;;;;;5009281;28;20187;-69
2023/11/30 13:59:41;;;;;;;21.93;11.87;;;;;;;;;;5022363;28;20122;-68
2023/11/30 14:02:09;;;;;;;21.60;10.33;;;;;;;;;;5010490;28;20026;-71
2023/11/30 14:04:34;;;;;;;25.40;11.70;;;;;;;;;;5004741;28;20069;-72
2023/11/30 14:07:01;;;;;;;23.37;11.07;;;;;;;;;;4998148;28;20380;-72
2023/11/30 14:09:27;;;;;;;33.70;11.53;;;;;;;;;;4999182;28;20038;-71
2023/11/30 14:11:56;;;;;;;24.83;11.07;;;;;;;;;;5014074;28;20056;-70
2023/11/30 14:14:22;;;;;;;22.50;11.53;;;;;;;;;;5020978;28;20026;-70
2023/11/30 14:16:49;;;;;;;23.57;11.17;;;;;;;;;;5014248;28;20422;-74
2023/11/30 14:19:16;;;;;;;26.13;11.53;;;;;;;;;;5007846;28;20568;-74
2023/11/30 14:21:42;;;;;;;18.33;8.87;;;;;;;;;;5020548;28;20075;-74
2023/11/30 14:24:14;;;;;;;32.73;16.13;;;;;;;;;;5018349;28;20034;-74
2023/11/30 14:26:40;;;;;;;21.57;9.87;;;;;;;;;;5025508;28;20026;-74